sensor_id;sensor_type;location;lat;lon;timestamp;P1;durP1;ratioP1;P2;durP2;ratioP2
15990;SDS011;8100;50.994;4.538;2024-01-11T00:01:39;19.13;;;8.88;;
15990;SDS011;8100;50.994;4.538;2024-01-11T00:04:31;22.92;;;9.30;;
15990;SDS011;8100;50.994;4.538;2024-01-11T00:07:20;16.50;;;8.18;;
15990;SDS011;8100;50.994;4.538;2024-01-11T00:10:07;23.25;;;9.90;;
15990;SDS011;8100;50.994;4.538;2024-01-11T00:12:54;19.90;;;9.77;;
15990;SDS011;8100;50.994;4.538;2024-01-11T00:15:41;19.02;;;8.88;;
15990;SDS011;8100;50.994;4.538;2024-01-11T00:18:28;18.08;;;8.73;;
15990;SDS011;8100;50.994;4.538;2024-01-11T00:21:15;17.33;;;9.45;;
15990;SDS011;8100;50.994;4.538;2024-01-11T00:24:04;18.23;;;9.10;;
15990;SDS011;8100;50.994;4.538;2024-01-11T00:26:51;17.13;;;8.32;;
15990;SDS011;8100;50.994;4.538;2024-01-11T00:29:38;18.98;;;8.77;;
15990;SDS011;8100;50.994;4.538;2024-01-11T00:32:25;24.23;;;9.38;;
15990;SDS011;8100;50.994;4.538;2024-01-11T00:35:12;21.48;;;8.85;;
15990;SDS011;8100;50.994;4.538;2024-01-11T00:37:59;18.30;;;9.05;;
15990;SDS011;8100;50.994;4.538;2024-01-11T00:40:47;17.05;;;8.57;;
15990;SDS011;8100;50.994;4.538;2024-01-11T00:43:35;18.42;;;9.13;;
15990;SDS011;8100;50.994;4.538;2024-01-11T00:46:22;20.20;;;9.45;;
15990;SDS011;8100;50.994;4.538;2024-01-11T00:49:09;17.95;;;8.75;;
15990;SDS011;8100;50.994;4.538;2024-01-11T00:51:56;19.02;;;9.20;;
15990;SDS011;8100;50.994;4.538;2024-01-11T00:54:43;22.45;;;9.35;;
15990;SDS011;8100;50.994;4.538;2024-01-11T00:57:31;18.77;;;10.18;;
15990;SDS011;8100;50.994;4.538;2024-01-11T01:00:18;21.88;;;9.73;;
15990;SDS011;8100;50.994;4.538;2024-01-11T01:03:05;21.48;;;9.38;;
15990;SDS011;8100;50.994;4.538;2024-01-11T01:05:52;17.58;;;8.90;;
15990;SDS011;8100;50.994;4.538;2024-01-11T01:08:39;19.40;;;9.07;;
15990;SDS011;8100;50.994;4.538;2024-01-11T01:11:26;20.08;;;9.75;;
15990;SDS011;8100;50.994;4.538;2024-01-11T01:14:14;17.92;;;9.30;;
15990;SDS011;8100;50.994;4.538;2024-01-11T01:17:01;18.77;;;9.10;;
15990;SDS011;8100;50.994;4.538;2024-01-11T01:19:49;21.30;;;8.60;;
15990;SDS011;8100;50.994;4.538;2024-01-11T01:22:36;18.27;;;8.90;;
15990;SDS011;8100;50.994;4.538;2024-01-11T01:25:23;20.55;;;9.00;;
15990;SDS011;8100;50.994;4.538;2024-01-11T01:28:10;17.35;;;9.02;;
15990;SDS011;8100;50.994;4.538;2024-01-11T01:30:58;17.92;;;9.07;;
15990;SDS011;8100;50.994;4.538;2024-01-11T01:33:45;19.42;;;9.15;;
15990;SDS011;8100;50.994;4.538;2024-01-11T01:36:32;20.00;;;9.40;;
15990;SDS011;8100;50.994;4.538;2024-01-11T01:39:19;19.27;;;8.57;;
15990;SDS011;8100;50.994;4.538;2024-01-11T01:42:06;20.42;;;8.68;;
15990;SDS011;8100;50.994;4.538;2024-01-11T01:44:53;20.38;;;8.60;;
15990;SDS011;8100;50.994;4.538;2024-01-11T01:47:42;18.48;;;9.30;;
15990;SDS011;8100;50.994;4.538;2024-01-11T01:50:29;20.95;;;9.15;;
15990;SDS011;8100;50.994;4.538;2024-01-11T01:53:17;17.27;;;8.35;;
15990;SDS011;8100;50.994;4.538;2024-01-11T01:56:05;20.65;;;8.80;;
15990;SDS011;8100;50.994;4.538;2024-01-11T01:58:54;18.85;;;9.27;;
15990;SDS011;8100;50.994;4.538;2024-01-11T02:01:42;16.55;;;9.25;;
15990;SDS011;8100;50.994;4.538;2024-01-11T02:04:30;21.23;;;9.65;;
15990;SDS011;8100;50.994;4.538;2024-01-11T02:07:18;19.83;;;8.70;;
15990;SDS011;8100;50.994;4.538;2024-01-11T02:10:06;18.20;;;9.20;;
15990;SDS011;8100;50.994;4.538;2024-01-11T02:12:54;19.45;;;9.50;;
15990;SDS011;8100;50.994;4.538;2024-01-11T02:15:41;19.00;;;9.60;;
15990;SDS011;8100;50.994;4.538;2024-01-11T02:18:29;19.50;;;8.65;;
15990;SDS011;8100;50.994;4.538;2024-01-11T02:21:17;16.58;;;8.35;;
15990;SDS011;8100;50.994;4.538;2024-01-11T02:24:06;17.90;;;8.82;;
15990;SDS011;8100;50.994;4.538;2024-01-11T02:26:57;16.15;;;8.20;;
15990;SDS011;8100;50.994;4.538;2024-01-11T02:29:45;16.27;;;8.65;;
15990;SDS011;8100;50.994;4.538;2024-01-11T02:32:32;17.10;;;8.68;;
15990;SDS011;8100;50.994;4.538;2024-01-11T02:35:19;21.33;;;8.75;;
15990;SDS011;8100;50.994;4.538;2024-01-11T02:38:06;19.33;;;9.13;;
15990;SDS011;8100;50.994;4.538;2024-01-11T02:40:55;17.30;;;9.00;;
15990;SDS011;8100;50.994;4.538;2024-01-11T02:43:46;17.23;;;8.77;;
15990;SDS011;8100;50.994;4.538;2024-01-11T02:46:34;18.17;;;9.05;;
15990;SDS011;8100;50.994;4.538;2024-01-11T02:49:21;16.38;;;8.85;;
15990;SDS011;8100;50.994;4.538;2024-01-11T02:52:08;18.67;;;9.32;;
15990;SDS011;8100;50.994;4.538;2024-01-11T02:54:55;19.75;;;9.38;;
15990;SDS011;8100;50.994;4.538;2024-01-11T02:57:43;19.25;;;9.20;;
15990;SDS011;8100;50.994;4.538;2024-01-11T03:00:30;19.92;;;9.05;;
15990;SDS011;8100;50.994;4.538;2024-01-11T03:03:17;19.23;;;9.23;;
15990;SDS011;8100;50.994;4.538;2024-01-11T03:06:04;19.52;;;8.88;;
15990;SDS011;8100;50.994;4.538;2024-01-11T03:08:52;15.93;;;8.18;;
15990;SDS011;8100;50.994;4.538;2024-01-11T03:11:38;17.90;;;7.90;;
15990;SDS011;8100;50.994;4.538;2024-01-11T03:14:27;18.85;;;8.60;;
15990;SDS011;8100;50.994;4.538;2024-01-11T03:17:14;20.80;;;8.52;;
15990;SDS011;8100;50.994;4.538;2024-01-11T03:20:01;18.85;;;8.85;;
15990;SDS011;8100;50.994;4.538;2024-01-11T03:22:49;16.45;;;8.25;;
15990;SDS011;8100;50.994;4.538;2024-01-11T03:25:37;16.40;;;8.27;;
15990;SDS011;8100;50.994;4.538;2024-01-11T03:28:24;15.68;;;7.90;;
15990;SDS011;8100;50.994;4.538;2024-01-11T03:31:12;15.88;;;8.00;;
15990;SDS011;8100;50.994;4.538;2024-01-11T03:33:59;15.55;;;8.20;;
15990;SDS011;8100;50.994;4.538;2024-01-11T03:36:46;15.93;;;7.93;;
15990;SDS011;8100;50.994;4.538;2024-01-11T03:39:34;15.35;;;8.10;;
15990;SDS011;8100;50.994;4.538;2024-01-11T03:42:21;16.92;;;8.40;;
15990;SDS011;8100;50.994;4.538;2024-01-11T03:45:09;17.15;;;8.38;;
15990;SDS011;8100;50.994;4.538;2024-01-11T03:47:57;16.90;;;8.40;;
15990;SDS011;8100;50.994;4.538;2024-01-11T03:50:44;16.60;;;8.85;;
15990;SDS011;8100;50.994;4.538;2024-01-11T03:53:34;17.95;;;8.50;;
15990;SDS011;8100;50.994;4.538;2024-01-11T03:56:21;15.88;;;8.00;;
15990;SDS011;8100;50.994;4.538;2024-01-11T03:59:08;15.50;;;8.10;;
15990;SDS011;8100;50.994;4.538;2024-01-11T04:01:57;15.10;;;8.13;;
15990;SDS011;8100;50.994;4.538;2024-01-11T04:04:45;20.67;;;8.90;;
15990;SDS011;8100;50.994;4.538;2024-01-11T04:07:32;17.58;;;8.18;;
15990;SDS011;8100;50.994;4.538;2024-01-11T04:10:20;17.90;;;8.18;;
15990;SDS011;8100;50.994;4.538;2024-01-11T04:13:07;17.13;;;8.73;;
15990;SDS011;8100;50.994;4.538;2024-01-11T04:15:54;14.23;;;7.90;;
15990;SDS011;8100;50.994;4.538;2024-01-11T04:18:41;17.70;;;7.72;;
15990;SDS011;8100;50.994;4.538;2024-01-11T04:21:29;19.25;;;9.02;;
15990;SDS011;8100;50.994;4.538;2024-01-11T04:24:16;18.17;;;8.57;;
15990;SDS011;8100;50.994;4.538;2024-01-11T04:27:03;15.75;;;8.85;;
15990;SDS011;8100;50.994;4.538;2024-01-11T04:29:50;17.98;;;9.10;;
15990;SDS011;8100;50.994;4.538;2024-01-11T04:32:37;18.30;;;8.93;;
15990;SDS011;8100;50.994;4.538;2024-01-11T04:35:24;21.67;;;8.88;;
15990;SDS011;8100;50.994;4.538;2024-01-11T04:38:13;21.05;;;10.13;;
15990;SDS011;8100;50.994;4.538;2024-01-11T04:41:00;17.60;;;8.38;;
15990;SDS011;8100;50.994;4.538;2024-01-11T04:43:47;16.83;;;8.05;;
15990;SDS011;8100;50.994;4.538;2024-01-11T04:46:34;21.63;;;9.10;;
15990;SDS011;8100;50.994;4.538;2024-01-11T04:49:21;18.65;;;8.52;;
15990;SDS011;8100;50.994;4.538;2024-01-11T04:52:08;18.70;;;8.00;;
15990;SDS011;8100;50.994;4.538;2024-01-11T04:54:59;15.07;;;8.25;;
15990;SDS011;8100;50.994;4.538;2024-01-11T04:57:46;20.92;;;8.52;;
15990;SDS011;8100;50.994;4.538;2024-01-11T05:00:33;18.88;;;8.27;;
15990;SDS011;8100;50.994;4.538;2024-01-11T05:03:20;19.52;;;8.82;;
15990;SDS011;8100;50.994;4.538;2024-01-11T05:06:07;18.20;;;8.70;;
15990;SDS011;8100;50.994;4.538;2024-01-11T05:08:54;16.58;;;8.20;;
15990;SDS011;8100;50.994;4.538;2024-01-11T05:11:42;15.90;;;8.43;;
15990;SDS011;8100;50.994;4.538;2024-01-11T05:14:29;18.13;;;8.75;;
15990;SDS011;8100;50.994;4.538;2024-01-11T05:17:16;17.10;;;8.25;;
15990;SDS011;8100;50.994;4.538;2024-01-11T05:20:03;18.02;;;9.23;;
15990;SDS011;8100;50.994;4.538;2024-01-11T05:22:51;16.77;;;8.05;;
15990;SDS011;8100;50.994;4.538;2024-01-11T05:25:39;18.27;;;8.45;;
15990;SDS011;8100;50.994;4.538;2024-01-11T05:28:27;19.92;;;8.88;;
15990;SDS011;8100;50.994;4.538;2024-01-11T05:31:15;22.33;;;9.38;;
15990;SDS011;8100;50.994;4.538;2024-01-11T05:34:02;18.73;;;8.27;;
15990;SDS011;8100;50.994;4.538;2024-01-11T05:36:49;20.13;;;8.98;;
15990;SDS011;8100;50.994;4.538;2024-01-11T05:39:36;18.23;;;9.10;;
15990;SDS011;8100;50.994;4.538;2024-01-11T05:42:23;19.13;;;9.32;;
15990;SDS011;8100;50.994;4.538;2024-01-11T05:45:11;16.27;;;8.55;;
15990;SDS011;8100;50.994;4.538;2024-01-11T05:48:02;19.35;;;8.77;;
15990;SDS011;8100;50.994;4.538;2024-01-11T05:50:50;18.92;;;8.95;;
15990;SDS011;8100;50.994;4.538;2024-01-11T05:53:37;20.98;;;9.70;;
15990;SDS011;8100;50.994;4.538;2024-01-11T05:56:24;18.52;;;9.00;;
15990;SDS011;8100;50.994;4.538;2024-01-11T05:59:11;17.83;;;8.43;;
15990;SDS011;8100;50.994;4.538;2024-01-11T06:01:59;20.73;;;9.20;;
15990;SDS011;8100;50.994;4.538;2024-01-11T06:04:46;17.55;;;9.13;;
15990;SDS011;8100;50.994;4.538;2024-01-11T06:07:34;19.35;;;9.35;;
15990;SDS011;8100;50.994;4.538;2024-01-11T06:10:21;18.83;;;8.75;;
15990;SDS011;8100;50.994;4.538;2024-01-11T06:13:08;17.83;;;9.30;;
15990;SDS011;8100;50.994;4.538;2024-01-11T06:15:55;20.50;;;9.25;;
15990;SDS011;8100;50.994;4.538;2024-01-11T06:18:44;16.73;;;8.30;;
15990;SDS011;8100;50.994;4.538;2024-01-11T06:21:31;19.55;;;9.05;;
15990;SDS011;8100;50.994;4.538;2024-01-11T06:24:18;19.95;;;8.82;;
15990;SDS011;8100;50.994;4.538;2024-01-11T06:27:04;18.08;;;8.93;;
15990;SDS011;8100;50.994;4.538;2024-01-11T06:29:52;18.13;;;8.57;;
15990;SDS011;8100;50.994;4.538;2024-01-11T06:32:39;18.80;;;9.25;;
15990;SDS011;8100;50.994;4.538;2024-01-11T06:35:28;19.80;;;9.20;;
15990;SDS011;8100;50.994;4.538;2024-01-11T06:38:16;20.10;;;9.05;;
15990;SDS011;8100;50.994;4.538;2024-01-11T06:41:03;17.60;;;9.20;;
15990;SDS011;8100;50.994;4.538;2024-01-11T06:43:50;18.45;;;8.48;;
15990;SDS011;8100;50.994;4.538;2024-01-11T06:46:37;18.25;;;8.70;;
15990;SDS011;8100;50.994;4.538;2024-01-11T06:49:25;19.20;;;9.18;;
15990;SDS011;8100;50.994;4.538;2024-01-11T06:52:13;17.90;;;8.77;;
15990;SDS011;8100;50.994;4.538;2024-01-11T06:55:00;16.75;;;9.02;;
15990;SDS011;8100;50.994;4.538;2024-01-11T06:57:48;20.02;;;9.73;;
15990;SDS011;8100;50.994;4.538;2024-01-11T07:00:35;19.55;;;9.43;;
15990;SDS011;8100;50.994;4.538;2024-01-11T07:03:23;18.98;;;9.57;;
15990;SDS011;8100;50.994;4.538;2024-01-11T07:06:10;21.52;;;9.60;;
15990;SDS011;8100;50.994;4.538;2024-01-11T07:08:59;21.20;;;9.43;;
15990;SDS011;8100;50.994;4.538;2024-01-11T07:11:46;18.75;;;9.60;;
15990;SDS011;8100;50.994;4.538;2024-01-11T07:14:33;20.33;;;9.30;;
15990;SDS011;8100;50.994;4.538;2024-01-11T07:17:20;20.70;;;10.02;;
15990;SDS011;8100;50.994;4.538;2024-01-11T07:20:08;20.98;;;9.43;;
15990;SDS011;8100;50.994;4.538;2024-01-11T07:22:56;18.73;;;9.32;;
15990;SDS011;8100;50.994;4.538;2024-01-11T07:25:44;22.67;;;9.63;;
15990;SDS011;8100;50.994;4.538;2024-01-11T07:28:32;19.63;;;10.52;;
15990;SDS011;8100;50.994;4.538;2024-01-11T07:31:18;23.45;;;9.38;;
15990;SDS011;8100;50.994;4.538;2024-01-11T07:34:05;18.15;;;9.73;;
15990;SDS011;8100;50.994;4.538;2024-01-11T07:36:52;19.77;;;9.70;;
15990;SDS011;8100;50.994;4.538;2024-01-11T07:39:39;19.33;;;8.73;;
15990;SDS011;8100;50.994;4.538;2024-01-11T07:42:28;18.40;;;9.20;;
15990;SDS011;8100;50.994;4.538;2024-01-11T07:45:15;19.95;;;10.48;;
15990;SDS011;8100;50.994;4.538;2024-01-11T07:48:02;20.75;;;10.63;;
15990;SDS011;8100;50.994;4.538;2024-01-11T07:50:50;16.95;;;9.73;;
15990;SDS011;8100;50.994;4.538;2024-01-11T07:53:37;21.67;;;10.48;;
15990;SDS011;8100;50.994;4.538;2024-01-11T07:56:26;23.65;;;10.35;;
15990;SDS011;8100;50.994;4.538;2024-01-11T07:59:14;19.10;;;10.00;;
15990;SDS011;8100;50.994;4.538;2024-01-11T08:02:01;22.25;;;11.18;;
15990;SDS011;8100;50.994;4.538;2024-01-11T08:04:48;21.67;;;10.40;;
15990;SDS011;8100;50.994;4.538;2024-01-11T08:07:35;23.30;;;10.38;;
15990;SDS011;8100;50.994;4.538;2024-01-11T08:10:22;20.08;;;10.32;;
15990;SDS011;8100;50.994;4.538;2024-01-11T08:13:09;19.90;;;10.18;;
15990;SDS011;8100;50.994;4.538;2024-01-11T08:15:59;25.27;;;11.88;;
15990;SDS011;8100;50.994;4.538;2024-01-11T08:18:48;27.80;;;11.75;;
15990;SDS011;8100;50.994;4.538;2024-01-11T08:21:36;23.10;;;10.55;;
15990;SDS011;8100;50.994;4.538;2024-01-11T08:24:23;23.05;;;11.20;;
15990;SDS011;8100;50.994;4.538;2024-01-11T08:27:11;23.48;;;11.25;;
15990;SDS011;8100;50.994;4.538;2024-01-11T08:29:57;18.73;;;10.35;;
15990;SDS011;8100;50.994;4.538;2024-01-11T08:32:46;23.38;;;10.35;;
15990;SDS011;8100;50.994;4.538;2024-01-11T08:35:34;20.67;;;10.05;;
15990;SDS011;8100;50.994;4.538;2024-01-11T08:38:21;19.45;;;10.25;;
15990;SDS011;8100;50.994;4.538;2024-01-11T08:41:09;24.05;;;11.20;;
15990;SDS011;8100;50.994;4.538;2024-01-11T08:43:56;23.30;;;12.27;;
15990;SDS011;8100;50.994;4.538;2024-01-11T08:46:43;26.50;;;12.50;;
15990;SDS011;8100;50.994;4.538;2024-01-11T08:49:32;24.83;;;11.27;;
15990;SDS011;8100;50.994;4.538;2024-01-11T08:52:19;19.95;;;11.43;;
15990;SDS011;8100;50.994;4.538;2024-01-11T08:55:08;21.38;;;11.15;;
15990;SDS011;8100;50.994;4.538;2024-01-11T08:57:55;23.25;;;11.20;;
15990;SDS011;8100;50.994;4.538;2024-01-11T09:00:42;22.65;;;10.88;;
15990;SDS011;8100;50.994;4.538;2024-01-11T09:03:29;22.38;;;10.25;;
15990;SDS011;8100;50.994;4.538;2024-01-11T09:06:17;23.98;;;9.65;;
15990;SDS011;8100;50.994;4.538;2024-01-11T09:09:04;22.83;;;10.63;;
15990;SDS011;8100;50.994;4.538;2024-01-11T09:11:56;26.83;;;10.20;;
15990;SDS011;8100;50.994;4.538;2024-01-11T09:14:43;21.80;;;10.90;;
15990;SDS011;8100;50.994;4.538;2024-01-11T09:17:30;21.60;;;11.05;;
15990;SDS011;8100;50.994;4.538;2024-01-11T09:20:17;23.42;;;10.45;;
15990;SDS011;8100;50.994;4.538;2024-01-11T09:23:06;22.95;;;10.07;;
15990;SDS011;8100;50.994;4.538;2024-01-11T09:25:53;21.35;;;10.30;;
15990;SDS011;8100;50.994;4.538;2024-01-11T09:28:40;23.13;;;10.65;;
15990;SDS011;8100;50.994;4.538;2024-01-11T09:31:27;21.75;;;11.00;;
15990;SDS011;8100;50.994;4.538;2024-01-11T09:34:14;22.95;;;11.35;;
15990;SDS011;8100;50.994;4.538;2024-01-11T09:37:02;22.77;;;10.85;;
15990;SDS011;8100;50.994;4.538;2024-01-11T09:39:50;22.55;;;10.43;;
15990;SDS011;8100;50.994;4.538;2024-01-11T09:42:37;23.00;;;10.80;;
15990;SDS011;8100;50.994;4.538;2024-01-11T09:45:25;21.55;;;11.25;;
15990;SDS011;8100;50.994;4.538;2024-01-11T09:48:12;20.60;;;10.48;;
15990;SDS011;8100;50.994;4.538;2024-01-11T09:51:00;25.05;;;11.05;;
15990;SDS011;8100;50.994;4.538;2024-01-11T09:53:48;23.38;;;10.95;;
15990;SDS011;8100;50.994;4.538;2024-01-11T09:56:38;19.95;;;10.23;;
15990;SDS011;8100;50.994;4.538;2024-01-11T09:59:25;22.17;;;10.68;;
15990;SDS011;8100;50.994;4.538;2024-01-11T10:02:13;18.67;;;9.80;;
15990;SDS011;8100;50.994;4.538;2024-01-11T10:05:00;21.70;;;11.13;;
15990;SDS011;8100;50.994;4.538;2024-01-11T10:07:47;22.73;;;10.32;;
15990;SDS011;8100;50.994;4.538;2024-01-11T10:10:35;25.23;;;11.23;;
15990;SDS011;8100;50.994;4.538;2024-01-11T10:13:27;21.90;;;10.85;;
15990;SDS011;8100;50.994;4.538;2024-01-11T10:16:15;21.23;;;10.82;;
15990;SDS011;8100;50.994;4.538;2024-01-11T10:19:01;22.25;;;11.18;;
15990;SDS011;8100;50.994;4.538;2024-01-11T10:21:49;20.60;;;10.35;;
15990;SDS011;8100;50.994;4.538;2024-01-11T10:24:36;23.05;;;11.38;;
15990;SDS011;8100;50.994;4.538;2024-01-11T10:27:25;20.45;;;11.02;;
15990;SDS011;8100;50.994;4.538;2024-01-11T10:30:15;20.52;;;10.23;;
15990;SDS011;8100;50.994;4.538;2024-01-11T10:33:03;22.33;;;11.57;;
15990;SDS011;8100;50.994;4.538;2024-01-11T10:35:50;20.02;;;10.18;;
15990;SDS011;8100;50.994;4.538;2024-01-11T10:38:38;22.75;;;10.57;;
15990;SDS011;8100;50.994;4.538;2024-01-11T10:41:25;23.30;;;11.60;;
15990;SDS011;8100;50.994;4.538;2024-01-11T10:44:16;23.00;;;10.43;;
15990;SDS011;8100;50.994;4.538;2024-01-11T10:47:06;24.30;;;10.85;;
15990;SDS011;8100;50.994;4.538;2024-01-11T10:49:56;21.70;;;11.10;;
15990;SDS011;8100;50.994;4.538;2024-01-11T10:52:49;22.58;;;11.48;;
15990;SDS011;8100;50.994;4.538;2024-01-11T10:55:49;21.00;;;10.88;;
15990;SDS011;8100;50.994;4.538;2024-01-11T10:58:37;23.40;;;10.10;;
15990;SDS011;8100;50.994;4.538;2024-01-11T11:01:26;24.70;;;12.35;;
15990;SDS011;8100;50.994;4.538;2024-01-11T11:04:16;23.67;;;11.27;;
15990;SDS011;8100;50.994;4.538;2024-01-11T11:07:05;21.98;;;8.43;;
15990;SDS011;8100;50.994;4.538;2024-01-11T11:09:53;19.15;;;9.80;;
15990;SDS011;8100;50.994;4.538;2024-01-11T11:12:42;22.88;;;10.50;;
15990;SDS011;8100;50.994;4.538;2024-01-11T11:15:31;20.73;;;9.85;;
15990;SDS011;8100;50.994;4.538;2024-01-11T11:18:19;18.75;;;8.82;;
15990;SDS011;8100;50.994;4.538;2024-01-11T11:21:09;22.65;;;11.90;;
15990;SDS011;8100;50.994;4.538;2024-01-11T11:23:57;20.58;;;10.05;;
15990;SDS011;8100;50.994;4.538;2024-01-11T11:26:44;20.80;;;9.55;;
15990;SDS011;8100;50.994;4.538;2024-01-11T11:29:31;21.88;;;9.05;;
15990;SDS011;8100;50.994;4.538;2024-01-11T11:32:18;24.95;;;10.18;;
15990;SDS011;8100;50.994;4.538;2024-01-11T11:35:22;22.17;;;10.90;;
15990;SDS011;8100;50.994;4.538;2024-01-11T11:38:18;21.25;;;10.60;;
15990;SDS011;8100;50.994;4.538;2024-01-11T11:41:06;19.15;;;9.65;;
15990;SDS011;8100;50.994;4.538;2024-01-11T11:43:53;19.90;;;9.85;;
15990;SDS011;8100;50.994;4.538;2024-01-11T11:46:40;22.75;;;10.32;;
15990;SDS011;8100;50.994;4.538;2024-01-11T11:52:44;18.50;;;8.95;;
15990;SDS011;8100;50.994;4.538;2024-01-11T11:55:33;19.02;;;8.82;;
15990;SDS011;8100;50.994;4.538;2024-01-11T11:58:21;21.08;;;10.07;;
15990;SDS011;8100;50.994;4.538;2024-01-11T12:01:08;16.73;;;9.05;;
15990;SDS011;8100;50.994;4.538;2024-01-11T12:03:55;22.08;;;10.15;;
15990;SDS011;8100;50.994;4.538;2024-01-11T12:06:43;19.63;;;10.05;;
15990;SDS011;8100;50.994;4.538;2024-01-11T12:09:31;20.17;;;10.13;;
15990;SDS011;8100;50.994;4.538;2024-01-11T12:12:19;16.45;;;9.73;;
15990;SDS011;8100;50.994;4.538;2024-01-11T12:15:07;20.20;;;10.18;;
15990;SDS011;8100;50.994;4.538;2024-01-11T12:17:57;20.40;;;9.63;;
15990;SDS011;8100;50.994;4.538;2024-01-11T12:20:44;18.30;;;9.77;;
15990;SDS011;8100;50.994;4.538;2024-01-11T12:23:32;15.75;;;8.63;;
15990;SDS011;8100;50.994;4.538;2024-01-11T12:26:20;16.58;;;8.95;;
15990;SDS011;8100;50.994;4.538;2024-01-11T12:29:09;16.77;;;9.90;;
15990;SDS011;8100;50.994;4.538;2024-01-11T12:31:56;18.20;;;9.63;;
15990;SDS011;8100;50.994;4.538;2024-01-11T12:34:44;17.17;;;8.98;;
15990;SDS011;8100;50.994;4.538;2024-01-11T12:37:32;17.42;;;8.27;;
15990;SDS011;8100;50.994;4.538;2024-01-11T12:40:19;19.65;;;8.70;;
15990;SDS011;8100;50.994;4.538;2024-01-11T12:43:07;17.92;;;8.77;;
15990;SDS011;8100;50.994;4.538;2024-01-11T12:45:55;16.55;;;9.20;;
15990;SDS011;8100;50.994;4.538;2024-01-11T12:48:42;17.67;;;9.00;;
15990;SDS011;8100;50.994;4.538;2024-01-11T12:51:29;16.75;;;8.43;;
15990;SDS011;8100;50.994;4.538;2024-01-11T12:54:16;15.40;;;6.82;;
15990;SDS011;8100;50.994;4.538;2024-01-11T12:57:05;17.08;;;8.27;;
15990;SDS011;8100;50.994;4.538;2024-01-11T12:59:52;20.70;;;9.90;;
15990;SDS011;8100;50.994;4.538;2024-01-11T13:02:41;17.95;;;9.77;;
15990;SDS011;8100;50.994;4.538;2024-01-11T13:05:29;14.85;;;8.20;;
15990;SDS011;8100;50.994;4.538;2024-01-11T13:08:19;15.95;;;8.38;;
15990;SDS011;8100;50.994;4.538;2024-01-11T13:11:07;15.15;;;7.93;;
15990;SDS011;8100;50.994;4.538;2024-01-11T13:13:54;16.88;;;8.80;;
15990;SDS011;8100;50.994;4.538;2024-01-11T13:16:43;18.90;;;9.05;;
15990;SDS011;8100;50.994;4.538;2024-01-11T13:19:32;14.98;;;7.15;;
15990;SDS011;8100;50.994;4.538;2024-01-11T13:22:19;15.77;;;7.65;;
15990;SDS011;8100;50.994;4.538;2024-01-11T13:25:06;15.18;;;7.28;;
15990;SDS011;8100;50.994;4.538;2024-01-11T13:27:54;17.70;;;8.50;;
15990;SDS011;8100;50.994;4.538;2024-01-11T13:30:41;13.05;;;7.13;;
15990;SDS011;8100;50.994;4.538;2024-01-11T13:33:30;16.90;;;8.07;;
15990;SDS011;8100;50.994;4.538;2024-01-11T13:36:19;19.85;;;7.97;;
15990;SDS011;8100;50.994;4.538;2024-01-11T13:39:05;17.58;;;8.20;;
15990;SDS011;8100;50.994;4.538;2024-01-11T13:41:54;14.02;;;6.57;;
15990;SDS011;8100;50.994;4.538;2024-01-11T13:44:41;15.18;;;8.82;;
15990;SDS011;8100;50.994;4.538;2024-01-11T13:47:28;16.20;;;7.05;;
15990;SDS011;8100;50.994;4.538;2024-01-11T13:50:15;17.02;;;9.05;;
15990;SDS011;8100;50.994;4.538;2024-01-11T13:53:04;17.40;;;8.35;;
15990;SDS011;8100;50.994;4.538;2024-01-11T13:55:51;15.68;;;7.47;;
15990;SDS011;8100;50.994;4.538;2024-01-11T13:58:38;15.57;;;8.00;;
15990;SDS011;8100;50.994;4.538;2024-01-11T14:01:25;17.15;;;8.13;;
15990;SDS011;8100;50.994;4.538;2024-01-11T14:04:12;14.55;;;8.35;;
15990;SDS011;8100;50.994;4.538;2024-01-11T14:06:59;16.05;;;7.72;;
15990;SDS011;8100;50.994;4.538;2024-01-11T14:09:49;18.33;;;8.57;;
15990;SDS011;8100;50.994;4.538;2024-01-11T14:12:37;15.70;;;8.85;;
15990;SDS011;8100;50.994;4.538;2024-01-11T14:15:24;16.35;;;9.05;;
15990;SDS011;8100;50.994;4.538;2024-01-11T14:18:11;15.07;;;7.15;;
15990;SDS011;8100;50.994;4.538;2024-01-11T14:20:58;15.35;;;8.15;;
15990;SDS011;8100;50.994;4.538;2024-01-11T14:23:46;16.95;;;8.23;;
15990;SDS011;8100;50.994;4.538;2024-01-11T14:26:35;17.42;;;8.80;;
15990;SDS011;8100;50.994;4.538;2024-01-11T14:29:21;17.98;;;8.45;;
15990;SDS011;8100;50.994;4.538;2024-01-11T14:32:08;15.48;;;8.15;;
15990;SDS011;8100;50.994;4.538;2024-01-11T14:34:56;17.25;;;8.23;;
15990;SDS011;8100;50.994;4.538;2024-01-11T14:37:46;19.58;;;10.10;;
15990;SDS011;8100;50.994;4.538;2024-01-11T14:40:34;18.00;;;8.88;;
15990;SDS011;8100;50.994;4.538;2024-01-11T14:43:22;20.15;;;10.40;;
15990;SDS011;8100;50.994;4.538;2024-01-11T14:46:09;18.02;;;9.95;;
15990;SDS011;8100;50.994;4.538;2024-01-11T14:48:56;20.30;;;9.85;;
15990;SDS011;8100;50.994;4.538;2024-01-11T14:51:43;15.90;;;7.75;;
15990;SDS011;8100;50.994;4.538;2024-01-11T14:54:30;17.48;;;9.10;;
15990;SDS011;8100;50.994;4.538;2024-01-11T14:57:17;18.90;;;9.57;;
15990;SDS011;8100;50.994;4.538;2024-01-11T15:00:08;18.80;;;9.98;;
15990;SDS011;8100;50.994;4.538;2024-01-11T15:02:56;19.10;;;10.02;;
15990;SDS011;8100;50.994;4.538;2024-01-11T15:05:43;20.25;;;9.27;;
15990;SDS011;8100;50.994;4.538;2024-01-11T15:08:30;18.35;;;9.48;;
15990;SDS011;8100;50.994;4.538;2024-01-11T15:11:17;15.65;;;6.72;;
15990;SDS011;8100;50.994;4.538;2024-01-11T15:14:04;18.63;;;8.85;;
15990;SDS011;8100;50.994;4.538;2024-01-11T15:16:52;15.48;;;8.48;;
15990;SDS011;8100;50.994;4.538;2024-01-11T15:19:39;15.27;;;7.95;;
15990;SDS011;8100;50.994;4.538;2024-01-11T15:22:26;18.92;;;9.50;;
15990;SDS011;8100;50.994;4.538;2024-01-11T15:25:13;16.00;;;8.18;;
15990;SDS011;8100;50.994;4.538;2024-01-11T15:28:02;16.05;;;7.97;;
15990;SDS011;8100;50.994;4.538;2024-01-11T15:30:49;17.08;;;8.13;;
15990;SDS011;8100;50.994;4.538;2024-01-11T15:33:37;13.90;;;7.32;;
15990;SDS011;8100;50.994;4.538;2024-01-11T15:36:25;11.90;;;5.85;;
15990;SDS011;8100;50.994;4.538;2024-01-11T15:39:12;10.10;;;5.45;;
15990;SDS011;8100;50.994;4.538;2024-01-11T15:41:59;9.48;;;5.00;;
15990;SDS011;8100;50.994;4.538;2024-01-11T15:44:48;8.63;;;4.50;;
15990;SDS011;8100;50.994;4.538;2024-01-11T15:47:35;10.80;;;4.47;;
15990;SDS011;8100;50.994;4.538;2024-01-11T15:50:23;10.23;;;4.40;;
15990;SDS011;8100;50.994;4.538;2024-01-11T15:53:10;8.32;;;3.85;;
15990;SDS011;8100;50.994;4.538;2024-01-11T15:55:57;9.35;;;4.43;;
15990;SDS011;8100;50.994;4.538;2024-01-11T15:58:46;9.10;;;4.22;;
15990;SDS011;8100;50.994;4.538;2024-01-11T16:01:33;9.65;;;4.50;;
15990;SDS011;8100;50.994;4.538;2024-01-11T16:04:21;7.53;;;4.03;;
15990;SDS011;8100;50.994;4.538;2024-01-11T16:07:09;10.68;;;5.13;;
15990;SDS011;8100;50.994;4.538;2024-01-11T16:09:56;8.90;;;4.82;;
15990;SDS011;8100;50.994;4.538;2024-01-11T16:12:43;11.48;;;5.38;;
15990;SDS011;8100;50.994;4.538;2024-01-11T16:15:30;10.95;;;4.93;;
15990;SDS011;8100;50.994;4.538;2024-01-11T16:18:17;7.65;;;4.28;;
15990;SDS011;8100;50.994;4.538;2024-01-11T16:21:05;9.65;;;4.65;;
15990;SDS011;8100;50.994;4.538;2024-01-11T16:23:53;8.82;;;4.40;;
15990;SDS011;8100;50.994;4.538;2024-01-11T16:26:41;9.60;;;5.00;;
15990;SDS011;8100;50.994;4.538;2024-01-11T16:29:28;10.32;;;4.93;;
15990;SDS011;8100;50.994;4.538;2024-01-11T16:32:15;11.77;;;5.80;;
15990;SDS011;8100;50.994;4.538;2024-01-11T16:35:03;9.77;;;4.57;;
15990;SDS011;8100;50.994;4.538;2024-01-11T16:37:50;10.45;;;5.07;;
15990;SDS011;8100;50.994;4.538;2024-01-11T16:40:39;9.02;;;4.95;;
15990;SDS011;8100;50.994;4.538;2024-01-11T16:43:26;11.38;;;4.95;;
15990;SDS011;8100;50.994;4.538;2024-01-11T16:46:19;10.25;;;4.97;;
15990;SDS011;8100;50.994;4.538;2024-01-11T16:49:06;9.73;;;4.75;;
15990;SDS011;8100;50.994;4.538;2024-01-11T16:51:54;11.27;;;5.18;;